Time;durP1;ratioP1;P1;durP2;ratioP2;P2;SDS_P1;SDS_P2;PMS_P1;PMS_P2;Temp;Humidity;BMP_temperature;BMP_pressure;BME280_temperature;BME280_humidity;BME280_pressure;Samples;Min_cycle;Max_cycle;Signal;HPM_P1;HPM_P2
2021/03/20 00:00:11;;;;;;;23.35;21.92;;;;;;;;;;5093709;28;20206;-73
2021/03/20 00:02:38;;;;;;;24.35;22.80;;;;;;;;;;5093197;28;20583;-73
2021/03/20 00:05:05;;;;;;;22.35;21.05;;;;;;;;;;5093174;28;20187;-73
2021/03/20 00:07:32;;;;;;;23.70;22.20;;;;;;;;;;5093530;28;20216;-73
2021/03/20 00:09:59;;;;;;;28.98;25.85;;;;;;;;;;5093486;28;20183;-73
2021/03/20 00:12:26;;;;;;;23.17;21.80;;;;;;;;;;5093536;28;20194;-73
2021/03/20 00:14:53;;;;;;;23.20;21.70;;;;;;;;;;5093473;28;20183;-72
2021/03/20 00:17:20;;;;;;;23.55;21.95;;;;;;;;;;5093135;28;20233;-73
2021/03/20 00:19:47;;;;;;;23.73;22.33;;;;;;;;;;5092774;28;20214;-73
2021/03/20 00:22:14;;;;;;;23.50;22.02;;;;;;;;;;5093219;28;20219;-73
2021/03/20 00:24:41;;;;;;;24.05;22.60;;;;;;;;;;5093136;28;20237;-73
2021/03/20 00:27:08;;;;;;;24.38;22.98;;;;;;;;;;5093105;28;20191;-73
2021/03/20 00:29:35;;;;;;;24.38;22.77;;;;;;;;;;5093136;28;20223;-73
2021/03/20 00:32:03;;;;;;;23.67;22.08;;;;;;;;;;5093081;28;20187;-72
2021/03/20 00:34:30;;;;;;;24.40;22.80;;;;;;;;;;5095303;28;20187;-73
2021/03/20 00:36:57;;;;;;;23.58;21.92;;;;;;;;;;5096855;28;20580;-72
2021/03/20 00:39:23;;;;;;;23.48;21.83;;;;;;;;;;5096453;28;20202;-73
2021/03/20 00:41:50;;;;;;;24.30;22.77;;;;;;;;;;5096822;28;20206;-73
2021/03/20 00:44:17;;;;;;;22.60;21.17;;;;;;;;;;5096505;28;20183;-73
2021/03/20 00:46:45;;;;;;;24.35;22.85;;;;;;;;;;5096400;28;20191;-73
2021/03/20 00:49:12;;;;;;;22.73;21.25;;;;;;;;;;5095121;28;20187;-73
2021/03/20 00:51:39;;;;;;;22.35;21.05;;;;;;;;;;5096582;28;20186;-73
2021/03/20 00:54:06;;;;;;;23.13;21.73;;;;;;;;;;5095934;28;20207;-72
2021/03/20 00:56:33;;;;;;;23.50;21.90;;;;;;;;;;5095830;28;20656;-73
2021/03/20 00:59:00;;;;;;;23.20;21.70;;;;;;;;;;5097229;28;20183;-73
2021/03/20 01:01:27;;;;;;;23.42;21.90;;;;;;;;;;5096683;28;20191;-73
2021/03/20 01:03:54;;;;;;;23.30;21.90;;;;;;;;;;5096244;28;20757;-73
2021/03/20 01:06:24;;;;;;;22.80;21.40;;;;;;;;;;5096388;28;20186;-73
2021/03/20 01:08:51;;;;;;;22.67;21.20;;;;;;;;;;5095852;28;20187;-73
2021/03/20 01:11:18;;;;;;;23.23;21.80;;;;;;;;;;5096350;28;20194;-73
2021/03/20 01:13:46;;;;;;;22.30;21.02;;;;;;;;;;5095924;28;20640;-73
2021/03/20 01:16:12;;;;;;;23.30;21.70;;;;;;;;;;5096152;28;20191;-73
2021/03/20 01:18:39;;;;;;;23.15;21.85;;;;;;;;;;5095742;28;20190;-73
2021/03/20 01:21:07;;;;;;;23.90;22.50;;;;;;;;;;5095982;28;20576;-73
2021/03/20 01:23:35;;;;;;;24.13;22.52;;;;;;;;;;5095614;28;20214;-73
2021/03/20 01:26:02;;;;;;;23.85;22.27;;;;;;;;;;5095568;28;20191;-73
2021/03/20 01:28:30;;;;;;;22.80;21.38;;;;;;;;;;5095836;28;20197;-73
2021/03/20 01:30:57;;;;;;;24.05;22.65;;;;;;;;;;5095617;28;20671;-73
2021/03/20 01:33:24;;;;;;;23.02;21.58;;;;;;;;;;5095732;28;20520;-73
2021/03/20 01:35:51;;;;;;;24.00;22.60;;;;;;;;;;5095757;28;20553;-73
2021/03/20 01:38:18;;;;;;;22.35;20.85;;;;;;;;;;5095318;28;20637;-73
2021/03/20 01:40:47;;;;;;;23.25;21.88;;;;;;;;;;5095315;28;20270;-72
2021/03/20 01:43:15;;;;;;;23.38;21.88;;;;;;;;;;5095196;28;20779;-73
2021/03/20 01:45:42;;;;;;;22.83;21.33;;;;;;;;;;5095118;28;20211;-73
2021/03/20 01:48:11;;;;;;;22.92;21.52;;;;;;;;;;5095207;28;20690;-73
2021/03/20 01:50:40;;;;;;;23.70;21.85;;;;;;;;;;5095483;28;20191;-73
2021/03/20 01:53:15;;;;;;;23.52;22.13;;;;;;;;;;5094065;28;20198;-73
2021/03/20 01:55:43;;;;;;;23.33;21.92;;;;;;;;;;5095280;28;20648;-73
2021/03/20 01:58:11;;;;;;;22.63;21.40;;;;;;;;;;5094813;28;20230;-73
2021/03/20 02:00:40;;;;;;;22.52;21.13;;;;;;;;;;5094932;28;20551;-73
2021/03/20 02:03:08;;;;;;;23.10;21.80;;;;;;;;;;5094825;28;20218;-73
2021/03/20 02:05:35;;;;;;;23.98;22.38;;;;;;;;;;5095144;28;20187;-73
2021/03/20 02:08:03;;;;;;;24.63;22.77;;;;;;;;;;5095075;28;20624;-73
2021/03/20 02:10:31;;;;;;;22.80;21.40;;;;;;;;;;5094855;28;20216;-73
2021/03/20 02:13:00;;;;;;;23.17;21.67;;;;;;;;;;5094661;28;20190;-73
2021/03/20 02:15:29;;;;;;;22.98;21.58;;;;;;;;;;5095010;28;20190;-73
2021/03/20 02:18:09;;;;;;;22.65;21.20;;;;;;;;;;5094927;28;20187;-73
2021/03/20 02:20:48;;;;;;;22.60;21.30;;;;;;;;;;5094423;28;20218;-73
2021/03/20 02:23:34;;;;;;;24.40;22.65;;;;;;;;;;5094736;28;20211;-73
2021/03/20 02:26:20;;;;;;;23.00;21.60;;;;;;;;;;5095566;28;20253;-73
2021/03/20 02:29:05;;;;;;;22.73;21.38;;;;;;;;;;5094320;28;20205;-73
2021/03/20 02:31:47;;;;;;;24.00;22.50;;;;;;;;;;5094562;28;20202;-73
2021/03/20 02:34:19;;;;;;;23.63;22.08;;;;;;;;;;5081799;28;20238;-73
2021/03/20 02:36:50;;;;;;;23.20;21.73;;;;;;;;;;5094565;28;20219;-73
2021/03/20 02:39:22;;;;;;;23.05;21.65;;;;;;;;;;5094562;28;20284;-73
2021/03/20 02:41:51;;;;;;;23.25;21.85;;;;;;;;;;5094282;28;20191;-73
2021/03/20 02:44:20;;;;;;;23.23;21.75;;;;;;;;;;5094156;28;20223;-73
2021/03/20 02:46:50;;;;;;;23.30;21.90;;;;;;;;;;5094366;28;20191;-73
2021/03/20 02:49:23;;;;;;;22.75;21.38;;;;;;;;;;5094369;28;20555;-73
2021/03/20 02:51:53;;;;;;;22.73;21.40;;;;;;;;;;5094201;28;20207;-72
2021/03/20 02:54:23;;;;;;;22.90;21.60;;;;;;;;;;5094393;28;20191;-73
2021/03/20 02:56:53;;;;;;;22.67;21.33;;;;;;;;;;5093112;28;20257;-72
2021/03/20 02:59:22;;;;;;;23.23;21.90;;;;;;;;;;5094032;28;20655;-73
2021/03/20 03:01:50;;;;;;;23.50;21.73;;;;;;;;;;5094290;28;20195;-72
2021/03/20 03:04:20;;;;;;;24.58;23.08;;;;;;;;;;5094230;28;20306;-73
2021/03/20 03:06:49;;;;;;;23.33;21.95;;;;;;;;;;5094161;28;20190;-73
2021/03/20 03:09:20;;;;;;;23.80;22.10;;;;;;;;;;5093821;28;20194;-72
2021/03/20 03:11:50;;;;;;;24.10;22.60;;;;;;;;;;5094052;28;20245;-73
2021/03/20 03:14:18;;;;;;;23.65;22.02;;;;;;;;;;5094229;28;20277;-73
2021/03/20 03:16:47;;;;;;;23.27;21.77;;;;;;;;;;5093693;28;20186;-73
2021/03/20 03:19:15;;;;;;;23.20;21.60;;;;;;;;;;5093746;28;20587;-73
2021/03/20 03:21:45;;;;;;;22.92;21.52;;;;;;;;;;5092969;28;20183;-73
2021/03/20 03:24:14;;;;;;;23.08;21.70;;;;;;;;;;5094091;28;20608;-73
2021/03/20 03:26:42;;;;;;;23.10;21.70;;;;;;;;;;5094284;28;20542;-73
2021/03/20 03:29:12;;;;;;;23.42;21.98;;;;;;;;;;5094163;28;20183;-73
2021/03/20 03:31:42;;;;;;;22.67;21.48;;;;;;;;;;5093856;28;20194;-73
2021/03/20 03:34:13;;;;;;;23.00;21.70;;;;;;;;;;5093770;28;20199;-73
2021/03/20 03:36:44;;;;;;;22.90;21.60;;;;;;;;;;5093756;28;20253;-73
2021/03/20 03:39:14;;;;;;;23.15;21.80;;;;;;;;;;5093840;28;20196;-72
2021/03/20 03:41:41;;;;;;;23.77;22.08;;;;;;;;;;5093514;28;20187;-72
2021/03/20 03:44:09;;;;;;;22.73;21.40;;;;;;;;;;5093696;28;20222;-73
2021/03/20 03:46:38;;;;;;;22.95;21.58;;;;;;;;;;5093631;28;20188;-73
2021/03/20 03:49:06;;;;;;;23.77;22.05;;;;;;;;;;5093781;28;20186;-73
2021/03/20 03:51:33;;;;;;;23.25;21.70;;;;;;;;;;5093584;28;20198;-72
2021/03/20 03:54:01;;;;;;;21.85;20.65;;;;;;;;;;5093694;28;20277;-72
2021/03/20 03:56:34;;;;;;;23.25;21.67;;;;;;;;;;5093261;28;20194;-72
2021/03/20 03:59:08;;;;;;;22.90;21.60;;;;;;;;;;5093380;28;20672;-72
2021/03/20 04:01:42;;;;;;;22.50;21.10;;;;;;;;;;5092258;28;20238;-71
2021/03/20 04:04:15;;;;;;;22.70;21.50;;;;;;;;;;5093541;28;20218;-72
2021/03/20 04:06:51;;;;;;;23.40;21.90;;;;;;;;;;5093559;28;20187;-72
2021/03/20 04:09:23;;;;;;;22.95;21.55;;;;;;;;;;5096978;28;20182;-73
2021/03/20 04:11:53;;;;;;;22.33;21.02;;;;;;;;;;5097497;28;20190;-73
2021/03/20 04:14:24;;;;;;;23.30;21.88;;;;;;;;;;5097128;28;20206;-73
2021/03/20 04:16:57;;;;;;;24.20;22.55;;;;;;;;;;5097276;28;20244;-73
2021/03/20 04:19:29;;;;;;;23.60;22.20;;;;;;;;;;5097241;28;20191;-73
2021/03/20 04:21:59;;;;;;;22.25;20.95;;;;;;;;;;5096891;28;20652;-73
2021/03/20 04:24:27;;;;;;;22.08;20.88;;;;;;;;;;5097096;28;20306;-73
2021/03/20 04:26:58;;;;;;;23.17;21.77;;;;;;;;;;5096590;28;20194;-73
2021/03/20 04:29:31;;;;;;;23.35;21.95;;;;;;;;;;5096656;28;20555;-72
2021/03/20 04:32:00;;;;;;;22.73;21.45;;;;;;;;;;5096929;28;20244;-72
2021/03/20 04:34:29;;;;;;;22.48;21.27;;;;;;;;;;5096893;28;20191;-73
2021/03/20 04:36:59;;;;;;;22.88;21.58;;;;;;;;;;5096744;28;20199;-73
2021/03/20 04:39:27;;;;;;;23.25;21.65;;;;;;;;;;5097234;28;20256;-73
2021/03/20 04:41:54;;;;;;;24.38;22.52;;;;;;;;;;5096998;28;20219;-73
2021/03/20 04:44:21;;;;;;;23.05;21.65;;;;;;;;;;5096635;28;20260;-73
2021/03/20 04:46:49;;;;;;;22.35;20.88;;;;;;;;;;5096685;28;20190;-73
2021/03/20 04:49:18;;;;;;;22.88;21.40;;;;;;;;;;5095396;28;20199;-73
2021/03/20 04:51:47;;;;;;;22.35;21.05;;;;;;;;;;5096558;28;20556;-72
2021/03/20 04:54:15;;;;;;;23.45;21.88;;;;;;;;;;5096301;28;20187;-73
2021/03/20 04:56:48;;;;;;;23.40;21.98;;;;;;;;;;5096094;28;20187;-73
2021/03/20 04:59:29;;;;;;;22.33;21.02;;;;;;;;;;5096192;28;20194;-73
2021/03/20 05:02:01;;;;;;;23.33;21.70;;;;;;;;;;5094365;28;20207;-72
2021/03/20 05:04:30;;;;;;;22.38;20.98;;;;;;;;;;5096368;28;20210;-73
2021/03/20 05:07:00;;;;;;;23.50;22.00;;;;;;;;;;5096284;28;20683;-72
2021/03/20 05:09:28;;;;;;;22.70;21.40;;;;;;;;;;5096023;28;20617;-72
2021/03/20 05:11:56;;;;;;;22.20;20.90;;;;;;;;;;5096213;28;20569;-72
2021/03/20 05:14:28;;;;;;;22.05;20.65;;;;;;;;;;5096238;28;20236;-73
2021/03/20 05:16:56;;;;;;;22.10;20.70;;;;;;;;;;5096029;28;20217;-72
2021/03/20 05:19:25;;;;;;;23.13;21.70;;;;;;;;;;5095215;28;20191;-72
2021/03/20 05:21:54;;;;;;;22.45;21.05;;;;;;;;;;5096003;28;20183;-71
2021/03/20 05:24:22;;;;;;;22.67;21.17;;;;;;;;;;5095714;28;20218;-70
2021/03/20 05:26:49;;;;;;;22.30;20.98;;;;;;;;;;5095057;28;20198;-71
2021/03/20 05:29:16;;;;;;;22.80;21.42;;;;;;;;;;5095732;28;20304;-71
2021/03/20 05:31:43;;;;;;;22.95;21.50;;;;;;;;;;5095864;28;20195;-71
2021/03/20 05:34:16;;;;;;;22.30;20.90;;;;;;;;;;5095533;28;20529;-72
2021/03/20 05:36:44;;;;;;;22.33;20.95;;;;;;;;;;5095391;28;20191;-71
2021/03/20 05:39:11;;;;;;;22.10;20.70;;;;;;;;;;5095432;28;20241;-72
2021/03/20 05:41:42;;;;;;;22.58;21.23;;;;;;;;;;5095420;28;20554;-71
2021/03/20 05:44:17;;;;;;;23.40;21.75;;;;;;;;;;5095837;28;20347;-71
2021/03/20 05:46:47;;;;;;;22.25;20.90;;;;;;;;;;5095192;28;20247;-72
2021/03/20 05:49:29;;;;;;;23.88;22.48;;;;;;;;;;5095566;28;20183;-71
2021/03/20 05:52:11;;;;;;;22.08;20.67;;;;;;;;;;5095170;28;20556;-71
2021/03/20 05:54:47;;;;;;;23.90;22.58;;;;;;;;;;5095392;28;20240;-72
2021/03/20 05:57:17;;;;;;;22.40;21.10;;;;;;;;;;5094777;28;20687;-71
2021/03/20 05:59:52;;;;;;;24.30;22.52;;;;;;;;;;5095243;28;20195;-71
2021/03/20 06:02:21;;;;;;;21.90;20.60;;;;;;;;;;5095088;28;20182;-71
2021/03/20 06:04:49;;;;;;;24.20;22.70;;;;;;;;;;5094813;28;20190;-71
2021/03/20 06:07:34;;;;;;;23.17;21.77;;;;;;;;;;5095132;28;20188;-73
2021/03/20 06:10:11;;;;;;;23.55;21.98;;;;;;;;;;5094795;28;20186;-72
2021/03/20 06:12:46;;;;;;;24.83;23.38;;;;;;;;;;5094815;28;20194;-72
2021/03/20 06:15:15;;;;;;;22.90;21.60;;;;;;;;;;5093869;28;20226;-72
2021/03/20 06:18:02;;;;;;;23.58;22.15;;;;;;;;;;5095034;28;20187;-72
2021/03/20 06:20:37;;;;;;;23.67;22.08;;;;;;;;;;5090869;28;20587;-72
2021/03/20 06:23:18;;;;;;;23.63;22.17;;;;;;;;;;5095031;28;20211;-72
2021/03/20 06:25:53;;;;;;;23.63;22.13;;;;;;;;;;5094330;28;20256;-72
2021/03/20 06:28:24;;;;;;;24.50;22.75;;;;;;;;;;5094574;28;20229;-71
2021/03/20 06:30:55;;;;;;;23.58;22.17;;;;;;;;;;5094653;28;20660;-71
2021/03/20 06:33:28;;;;;;;22.13;20.83;;;;;;;;;;5094695;28;20282;-72
2021/03/20 06:35:58;;;;;;;23.02;21.70;;;;;;;;;;5094600;28;20191;-72
2021/03/20 06:38:28;;;;;;;22.48;21.17;;;;;;;;;;5094465;28;20191;-72
2021/03/20 06:40:58;;;;;;;24.13;22.48;;;;;;;;;;5094260;28;20198;-72
2021/03/20 06:43:28;;;;;;;23.00;21.70;;;;;;;;;;5094152;28;20211;-71
2021/03/20 06:46:03;;;;;;;24.15;22.75;;;;;;;;;;5094508;28;20541;-71
2021/03/20 06:48:31;;;;;;;24.45;23.00;;;;;;;;;;5094112;28;20187;-71
2021/03/20 06:51:00;;;;;;;23.83;22.23;;;;;;;;;;5094440;28;20220;-72
2021/03/20 06:53:34;;;;;;;22.33;20.92;;;;;;;;;;5094062;28;20198;-71
2021/03/20 06:56:02;;;;;;;22.23;20.88;;;;;;;;;;5094296;28;20203;-72
2021/03/20 06:58:35;;;;;;;22.52;21.20;;;;;;;;;;5093758;28;20222;-72
2021/03/20 07:01:03;;;;;;;23.27;21.88;;;;;;;;;;5094244;28;20187;-72
2021/03/20 07:03:46;;;;;;;23.13;21.70;;;;;;;;;;5094027;28;20210;-72
2021/03/20 07:06:14;;;;;;;23.52;22.13;;;;;;;;;;5092087;28;20204;-72
2021/03/20 07:08:45;;;;;;;22.58;21.27;;;;;;;;;;5094115;28;20187;-72
2021/03/20 07:11:19;;;;;;;22.73;21.50;;;;;;;;;;5093857;28;20191;-72
2021/03/20 07:13:46;;;;;;;23.67;22.38;;;;;;;;;;5093756;28;20648;-72
2021/03/20 07:16:15;;;;;;;22.85;21.55;;;;;;;;;;5094186;28;20594;-72
2021/03/20 07:18:44;;;;;;;23.35;21.70;;;;;;;;;;5094056;28;20186;-72
2021/03/20 07:21:28;;;;;;;21.73;20.40;;;;;;;;;;5093861;28;20219;-72
2021/03/20 07:24:00;;;;;;;22.10;20.70;;;;;;;;;;5093528;28;20218;-72
2021/03/20 07:26:29;;;;;;;23.05;21.58;;;;;;;;;;5093435;28;20637;-72
2021/03/20 07:28:57;;;;;;;22.55;21.25;;;;;;;;;;5094717;28;20188;-72
2021/03/20 07:31:24;;;;;;;22.73;21.42;;;;;;;;;;5093354;28;20308;-72
2021/03/20 07:33:52;;;;;;;21.77;20.48;;;;;;;;;;5093658;28;20657;-71
2021/03/20 07:36:26;;;;;;;22.67;21.27;;;;;;;;;;5094030;28;20188;-72
2021/03/20 07:39:06;;;;;;;22.67;21.17;;;;;;;;;;5093925;28;20194;-71
2021/03/20 07:41:44;;;;;;;21.83;20.55;;;;;;;;;;5093745;28;20190;-70
2021/03/20 07:44:10;;;;;;;21.30;20.00;;;;;;;;;;5096892;28;20309;-71
2021/03/20 07:46:38;;;;;;;22.15;20.75;;;;;;;;;;5097511;28;20191;-72
2021/03/20 07:49:06;;;;;;;22.10;20.80;;;;;;;;;;5097533;28;20202;-72
2021/03/20 07:51:45;;;;;;;22.48;21.13;;;;;;;;;;5097821;28;20240;-72
2021/03/20 07:54:20;;;;;;;22.58;21.27;;;;;;;;;;5098285;28;20202;-72
2021/03/20 07:56:48;;;;;;;23.08;21.65;;;;;;;;;;5097096;28;20221;-72
2021/03/20 07:59:20;;;;;;;23.90;22.50;;;;;;;;;;5097567;28;20195;-72
2021/03/20 08:01:50;;;;;;;23.10;21.52;;;;;;;;;;5097581;28;20188;-71
2021/03/20 08:04:17;;;;;;;22.40;21.00;;;;;;;;;;5096291;28;20232;-72
2021/03/20 08:06:48;;;;;;;22.30;21.00;;;;;;;;;;5097157;28;20464;-71
2021/03/20 08:09:27;;;;;;;22.05;20.73;;;;;;;;;;5097189;28;20678;-71
2021/03/20 08:12:08;;;;;;;22.27;20.88;;;;;;;;;;5097409;28;20270;-72
2021/03/20 08:14:38;;;;;;;21.92;20.63;;;;;;;;;;5097368;28;20191;-72
2021/03/20 08:17:06;;;;;;;22.33;20.92;;;;;;;;;;5096943;28;20191;-72
2021/03/20 08:19:33;;;;;;;21.70;20.40;;;;;;;;;;5097158;28;20226;-71
2021/03/20 08:22:15;;;;;;;23.13;21.73;;;;;;;;;;5097313;28;20588;-72
2021/03/20 08:24:44;;;;;;;23.00;21.70;;;;;;;;;;5096768;28;20677;-72
2021/03/20 08:27:15;;;;;;;22.80;21.40;;;;;;;;;;5096568;28;20183;-71
2021/03/20 08:29:48;;;;;;;23.60;22.30;;;;;;;;;;5095881;28;20198;-71
2021/03/20 08:32:24;;;;;;;24.00;22.60;;;;;;;;;;5096728;28;20642;-71
2021/03/20 08:35:03;;;;;;;22.55;21.42;;;;;;;;;;5097443;28;20233;-72
2021/03/20 08:37:37;;;;;;;24.45;22.35;;;;;;;;;;5096995;28;20188;-71
2021/03/20 08:40:12;;;;;;;23.27;21.98;;;;;;;;;;5096631;28;20199;-72
2021/03/20 08:42:49;;;;;;;22.45;21.27;;;;;;;;;;5096858;28;20191;-71
2021/03/20 08:45:18;;;;;;;21.80;20.63;;;;;;;;;;5096464;28;20660;-72
2021/03/20 08:47:54;;;;;;;24.10;22.65;;;;;;;;;;5096487;28;20281;-72
2021/03/20 08:50:26;;;;;;;22.35;21.05;;;;;;;;;;5096766;28;20186;-72
2021/03/20 08:52:57;;;;;;;22.02;20.83;;;;;;;;;;5096789;28;20194;-72
2021/03/20 08:55:48;;;;;;;22.42;21.13;;;;;;;;;;5095471;28;20191;-71
2021/03/20 08:58:24;;;;;;;23.10;21.65;;;;;;;;;;5095875;28;20631;-71
2021/03/20 09:00:54;;;;;;;23.30;21.88;;;;;;;;;;5096228;28;20198;-73
2021/03/20 09:03:24;;;;;;;23.23;21.75;;;;;;;;;;5096162;28;20211;-72
2021/03/20 09:05:55;;;;;;;23.63;22.13;;;;;;;;;;5096438;28;20191;-71
2021/03/20 09:08:27;;;;;;;22.80;21.50;;;;;;;;;;5096015;28;20187;-72
2021/03/20 09:10:58;;;;;;;23.90;22.50;;;;;;;;;;5096211;28;20194;-72
2021/03/20 09:13:27;;;;;;;22.35;21.15;;;;;;;;;;5096290;28;20199;-71
2021/03/20 09:15:58;;;;;;;22.35;21.05;;;;;;;;;;5095868;28;20196;-71
2021/03/20 09:18:25;;;;;;;22.20;21.00;;;;;;;;;;5095858;28;20192;-71
2021/03/20 09:20:54;;;;;;;23.02;21.38;;;;;;;;;;5096011;28;20309;-71
2021/03/20 09:23:26;;;;;;;22.15;20.85;;;;;;;;;;5095694;28;20219;-76
2021/03/20 09:25:57;;;;;;;21.50;20.30;;;;;;;;;;5094937;28;20183;-72
2021/03/20 09:28:30;;;;;;;22.00;20.70;;;;;;;;;;5095618;28;20669;-74
2021/03/20 09:31:00;;;;;;;22.85;21.48;;;;;;;;;;5095928;28;20188;-73
2021/03/20 09:33:39;;;;;;;23.20;21.88;;;;;;;;;;5095688;28;20226;-76
2021/03/20 09:36:10;;;;;;;22.20;20.88;;;;;;;;;;5097742;28;20214;-76
2021/03/20 09:38:45;;;;;;;22.25;20.88;;;;;;;;;;5096629;28;20198;-76
2021/03/20 09:41:33;;;;;;;22.25;20.95;;;;;;;;;;5095721;28;20187;-75
2021/03/20 09:44:09;;;;;;;24.00;22.48;;;;;;;;;;5095890;28;20216;-75
2021/03/20 09:46:54;;;;;;;22.48;21.17;;;;;;;;;;5095714;28;20233;-76
2021/03/20 09:49:49;;;;;;;23.10;21.70;;;;;;;;;;5095838;28;20187;-75
2021/03/20 09:52:30;;;;;;;23.90;22.48;;;;;;;;;;5095781;28;20257;-75
2021/03/20 09:54:57;;;;;;;23.85;22.45;;;;;;;;;;5095640;28;20254;-75
2021/03/20 09:57:50;;;;;;;24.33;22.83;;;;;;;;;;5094899;28;20234;-76
2021/03/20 10:00:32;;;;;;;23.17;21.77;;;;;;;;;;5094889;28;20191;-76
2021/03/20 10:02:59;;;;;;;23.83;22.42;;;;;;;;;;5095338;28;20207;-77
2021/03/20 10:05:29;;;;;;;22.88;21.58;;;;;;;;;;5095406;28;20191;-78
2021/03/20 10:08:02;;;;;;;22.60;21.20;;;;;;;;;;5096050;28;20592;-77
2021/03/20 10:10:39;;;;;;;23.77;22.38;;;;;;;;;;5096243;28;20192;-77
2021/03/20 10:13:14;;;;;;;23.98;22.35;;;;;;;;;;5095561;28;20222;-78
2021/03/20 10:15:53;;;;;;;23.23;21.80;;;;;;;;;;5094790;28;20652;-77
2021/03/20 10:18:26;;;;;;;23.20;21.85;;;;;;;;;;5095436;28;20209;-75
2021/03/20 10:21:14;;;;;;;24.00;22.50;;;;;;;;;;5095611;28;20223;-72
2021/03/20 10:23:43;;;;;;;24.13;22.73;;;;;;;;;;5095457;28;20259;-73
2021/03/20 10:26:19;;;;;;;24.02;22.50;;;;;;;;;;5094932;28;20230;-73
2021/03/20 10:28:47;;;;;;;23.90;22.35;;;;;;;;;;5093722;28;20199;-74
2021/03/20 10:31:14;;;;;;;23.20;21.60;;;;;;;;;;5094570;28;20245;-74
2021/03/20 10:33:42;;;;;;;24.45;22.85;;;;;;;;;;5094649;28;20553;-76
2021/03/20 10:36:27;;;;;;;25.00;22.90;;;;;;;;;;5093296;28;20218;-77
2021/03/20 10:38:54;;;;;;;24.88;23.08;;;;;;;;;;5094778;28;20533;-75
2021/03/20 10:41:28;;;;;;;24.15;22.55;;;;;;;;;;5094362;28;20188;-76
2021/03/20 10:43:56;;;;;;;22.67;21.27;;;;;;;;;;5094625;28;20255;-76
2021/03/20 10:46:23;;;;;;;22.98;21.58;;;;;;;;;;5093235;28;20200;-76
2021/03/20 10:48:51;;;;;;;23.75;22.15;;;;;;;;;;5094355;28;20200;-77
2021/03/20 10:51:21;;;;;;;24.17;22.38;;;;;;;;;;5094169;28;20241;-76
2021/03/20 10:53:48;;;;;;;23.48;21.92;;;;;;;;;;5095802;28;20206;-77
2021/03/20 10:56:24;;;;;;;23.15;21.55;;;;;;;;;;5095426;28;20212;-79
2021/03/20 10:58:51;;;;;;;22.95;21.20;;;;;;;;;;5094522;28;20778;-79
2021/03/20 11:01:29;;;;;;;22.58;20.98;;;;;;;;;;5095436;28;20191;-80
2021/03/20 11:03:56;;;;;;;23.48;22.02;;;;;;;;;;5095392;28;20230;-78
2021/03/20 11:06:25;;;;;;;23.10;21.70;;;;;;;;;;5093983;28;20637;-79
2021/03/20 11:09:07;;;;;;;22.48;21.08;;;;;;;;;;5094757;28;20216;-78
2021/03/20 11:11:35;;;;;;;22.27;20.85;;;;;;;;;;5078225;28;20203;-78
2021/03/20 11:14:06;;;;;;;23.10;21.60;;;;;;;;;;5074951;28;20188;-77
2021/03/20 11:16:33;;;;;;;23.52;21.83;;;;;;;;;;5073649;28;20189;-78
2021/03/20 11:19:05;;;;;;;22.65;21.25;;;;;;;;;;5073229;28;20238;-82
2021/03/20 11:21:34;;;;;;;22.27;20.98;;;;;;;;;;5074408;28;20188;-80
2021/03/20 11:24:02;;;;;;;22.58;21.20;;;;;;;;;;5073943;28;20220;-78
2021/03/20 11:26:40;;;;;;;22.85;21.45;;;;;;;;;;5073990;28;20636;-76
2021/03/20 11:29:08;;;;;;;24.35;22.50;;;;;;;;;;5074766;28;20193;-75
2021/03/20 11:31:44;;;;;;;23.83;22.27;;;;;;;;;;5076029;28;20231;-79
2021/03/20 11:34:13;;;;;;;32.67;29.45;;;;;;;;;;5073401;28;20197;-78
2021/03/20 11:36:41;;;;;;;23.33;21.90;;;;;;;;;;5074245;28;20201;-82
2021/03/20 11:39:09;;;;;;;24.30;22.80;;;;;;;;;;5072955;28;20607;-87
2021/03/20 11:41:38;;;;;;;23.20;21.70;;;;;;;;;;5076423;28;20687;-80
2021/03/20 11:44:06;;;;;;;22.98;21.58;;;;;;;;;;5074508;28;20239;-81
2021/03/20 11:46:35;;;;;;;23.88;22.48;;;;;;;;;;5074014;28;20193;-79
2021/03/20 11:49:03;;;;;;;22.98;21.67;;;;;;;;;;5073954;28;20195;-82
2021/03/20 11:51:31;;;;;;;23.38;22.08;;;;;;;;;;5073451;28;20208;-81
2021/03/20 11:54:01;;;;;;;23.73;22.33;;;;;;;;;;5074123;28;20191;-82
2021/03/20 11:56:30;;;;;;;24.42;22.77;;;;;;;;;;5071975;28;20199;-77
2021/03/20 11:58:58;;;;;;;23.25;21.85;;;;;;;;;;5074480;28;20235;-78
2021/03/20 12:01:26;;;;;;;22.92;21.63;;;;;;;;;;5073482;28;20209;-78
2021/03/20 12:03:54;;;;;;;22.85;21.45;;;;;;;;;;5072281;28;20221;-74
2021/03/20 12:06:22;;;;;;;23.00;21.60;;;;;;;;;;5073589;28;20196;-78
2021/03/20 12:08:50;;;;;;;22.88;21.48;;;;;;;;;;5074137;28;20199;-76
2021/03/20 12:11:19;;;;;;;23.30;21.73;;;;;;;;;;5073750;28;20209;-75
2021/03/20 12:13:48;;;;;;;23.42;22.13;;;;;;;;;;5074736;28;20208;-77
2021/03/20 12:16:33;;;;;;;24.58;23.17;;;;;;;;;;5075461;28;20230;-75
2021/03/20 12:19:07;;;;;;;24.98;23.27;;;;;;;;;;5073137;28;20200;-73
2021/03/20 12:21:34;;;;;;;23.90;22.42;;;;;;;;;;5073427;28;20191;-75
2021/03/20 12:24:02;;;;;;;23.23;21.83;;;;;;;;;;5073115;28;20610;-75
2021/03/20 12:26:31;;;;;;;23.33;21.92;;;;;;;;;;5072981;28;20201;-74
2021/03/20 12:29:18;;;;;;;24.23;22.73;;;;;;;;;;5074080;28;20187;-75
2021/03/20 12:31:45;;;;;;;24.40;23.00;;;;;;;;;;5076854;28;20200;-75
2021/03/20 12:34:27;;;;;;;23.52;22.13;;;;;;;;;;5076724;28;20185;-76
2021/03/20 12:36:54;;;;;;;24.80;23.20;;;;;;;;;;5077646;28;20254;-77
2021/03/20 12:39:22;;;;;;;24.35;22.95;;;;;;;;;;5077667;28;20191;-76
2021/03/20 12:41:51;;;;;;;23.25;21.52;;;;;;;;;;5078518;28;20194;-75
2021/03/20 12:44:19;;;;;;;24.58;22.88;;;;;;;;;;5077457;28;20278;-74
2021/03/20 12:46:47;;;;;;;24.17;22.77;;;;;;;;;;5076230;28;20193;-75
2021/03/20 12:49:17;;;;;;;24.17;22.80;;;;;;;;;;5076515;28;20185;-74
2021/03/20 12:51:43;;;;;;;23.58;22.17;;;;;;;;;;5076439;28;20273;-75
2021/03/20 12:54:17;;;;;;;23.40;22.00;;;;;;;;;;5075205;28;20226;-74
2021/03/20 12:56:44;;;;;;;23.73;22.27;;;;;;;;;;5076012;28;20191;-74
2021/03/20 12:59:11;;;;;;;25.38;23.88;;;;;;;;;;5076396;28;20217;-78
2021/03/20 13:01:38;;;;;;;24.23;22.83;;;;;;;;;;5077227;28;20203;-79
2021/03/20 13:04:05;;;;;;;24.27;22.77;;;;;;;;;;5079064;28;20222;-79
2021/03/20 13:06:32;;;;;;;23.48;22.05;;;;;;;;;;5077199;28;20196;-82
2021/03/20 13:08:59;;;;;;;27.27;25.17;;;;;;;;;;5076391;28;20546;-80
2021/03/20 13:11:28;;;;;;;160.20;147.70;;;;;;;;;;5076129;28;20245;-80
2021/03/20 13:13:55;;;;;;;35.13;31.90;;;;;;;;;;5076912;28;20207;-80
2021/03/20 13:16:23;;;;;;;78.63;70.53;;;;;;;;;;5076114;28;20197;-80
2021/03/20 13:18:50;;;;;;;94.95;85.55;;;;;;;;;;5076034;28;20288;-81
2021/03/20 13:21:17;;;;;;;28.48;26.45;;;;;;;;;;5076216;28;20667;-82
2021/03/20 13:23:44;;;;;;;46.15;41.78;;;;;;;;;;5075663;28;20213;-78
2021/03/20 13:26:11;;;;;;;59.08;40.65;;;;;;;;;;5074636;28;20260;-80
2021/03/20 13:28:38;;;;;;;27.27;25.35;;;;;;;;;;5076779;28;20280;-79
2021/03/20 13:31:05;;;;;;;68.05;42.28;;;;;;;;;;5075405;28;20213;-77
2021/03/20 13:33:33;;;;;;;23.93;22.33;;;;;;;;;;5075925;28;20193;-77
2021/03/20 13:36:00;;;;;;;26.50;24.83;;;;;;;;;;5075850;28;20440;-78
2021/03/20 13:38:26;;;;;;;24.33;22.80;;;;;;;;;;5075801;28;20274;-74
2021/03/20 13:40:54;;;;;;;27.10;25.50;;;;;;;;;;5074458;28;20700;-74
2021/03/20 13:43:21;;;;;;;22.98;21.67;;;;;;;;;;5075396;28;20188;-74
2021/03/20 13:45:48;;;;;;;24.13;22.48;;;;;;;;;;5075359;28;20198;-74
2021/03/20 13:48:15;;;;;;;23.85;22.45;;;;;;;;;;5075145;28;20256;-75
2021/03/20 13:50:44;;;;;;;23.80;22.40;;;;;;;;;;5075410;28;20205;-74
2021/03/20 13:53:12;;;;;;;23.60;22.20;;;;;;;;;;5075123;28;20188;-74
2021/03/20 13:55:39;;;;;;;24.08;22.58;;;;;;;;;;5075622;28;20199;-74
2021/03/20 13:58:06;;;;;;;24.30;22.85;;;;;;;;;;5074637;28;20235;-74
2021/03/20 14:00:33;;;;;;;22.80;21.30;;;;;;;;;;5074760;28;20252;-74
2021/03/20 14:03:00;;;;;;;24.48;23.05;;;;;;;;;;5073929;28;20782;-74
2021/03/20 14:05:26;;;;;;;23.27;21.95;;;;;;;;;;5074707;28;20219;-74
2021/03/20 14:07:54;;;;;;;23.83;22.33;;;;;;;;;;5074924;28;20213;-74
2021/03/20 14:10:23;;;;;;;25.48;23.92;;;;;;;;;;5074752;28;20195;-74
2021/03/20 14:12:50;;;;;;;24.05;22.55;;;;;;;;;;5074869;28;20550;-74
2021/03/20 14:15:18;;;;;;;24.00;22.60;;;;;;;;;;5074826;28;20193;-73
2021/03/20 14:17:45;;;;;;;28.50;26.60;;;;;;;;;;5074831;28;20202;-74
2021/03/20 14:20:13;;;;;;;26.92;25.15;;;;;;;;;;5074661;28;20215;-74
2021/03/20 14:22:40;;;;;;;25.07;23.57;;;;;;;;;;5074726;28;20194;-74
2021/03/20 14:25:11;;;;;;;24.58;22.90;;;;;;;;;;5074467;28;20480;-74
2021/03/20 14:27:38;;;;;;;24.60;23.10;;;;;;;;;;5074088;28;20209;-74
2021/03/20 14:30:06;;;;;;;24.93;23.37;;;;;;;;;;5073066;28;20920;-73
2021/03/20 14:32:33;;;;;;;25.08;23.33;;;;;;;;;;5073248;28;20936;-74
2021/03/20 14:34:59;;;;;;;24.55;23.05;;;;;;;;;;5074251;28;20195;-74